sensor_id;sensor_type;location;lat;lon;timestamp;P1;durP1;ratioP1;P2;durP2;ratioP2
71792;SDS011;59639;51.170;6.456;2022-07-29T00:00:07;5.30;;;1.55;;
71792;SDS011;59639;51.170;6.456;2022-07-29T00:02:34;4.05;;;1.75;;
71792;SDS011;59639;51.170;6.456;2022-07-29T00:04:59;13.02;;;1.90;;
71792;SDS011;59639;51.170;6.456;2022-07-29T00:07:25;7.55;;;1.42;;
71792;SDS011;59639;51.170;6.456;2022-07-29T00:09:51;5.35;;;1.42;;
71792;SDS011;59639;51.170;6.456;2022-07-29T00:12:16;8.32;;;1.67;;
71792;SDS011;59639;51.170;6.456;2022-07-29T00:14:42;4.00;;;1.58;;
71792;SDS011;59639;51.170;6.456;2022-07-29T00:17:08;13.02;;;1.65;;
71792;SDS011;59639;51.170;6.456;2022-07-29T00:19:33;5.18;;;1.70;;
71792;SDS011;59639;51.170;6.456;2022-07-29T00:21:59;14.00;;;1.98;;
71792;SDS011;59639;51.170;6.456;2022-07-29T00:24:25;7.20;;;1.65;;
71792;SDS011;59639;51.170;6.456;2022-07-29T00:26:50;10.43;;;1.83;;
71792;SDS011;59639;51.170;6.456;2022-07-29T00:29:15;15.57;;;2.47;;
71792;SDS011;59639;51.170;6.456;2022-07-29T00:31:41;2.97;;;1.40;;
71792;SDS011;59639;51.170;6.456;2022-07-29T00:34:06;7.10;;;2.03;;
71792;SDS011;59639;51.170;6.456;2022-07-29T00:36:51;4.40;;;1.58;;
71792;SDS011;59639;51.170;6.456;2022-07-29T00:39:17;4.55;;;1.30;;
71792;SDS011;59639;51.170;6.456;2022-07-29T00:41:42;9.75;;;1.88;;
71792;SDS011;59639;51.170;6.456;2022-07-29T00:44:07;6.00;;;1.90;;
71792;SDS011;59639;51.170;6.456;2022-07-29T00:46:33;6.93;;;1.52;;
71792;SDS011;59639;51.170;6.456;2022-07-29T00:48:58;10.43;;;2.13;;
71792;SDS011;59639;51.170;6.456;2022-07-29T00:51:25;5.28;;;1.33;;
71792;SDS011;59639;51.170;6.456;2022-07-29T00:53:51;6.90;;;1.75;;
71792;SDS011;59639;51.170;6.456;2022-07-29T00:56:17;9.07;;;1.83;;
71792;SDS011;59639;51.170;6.456;2022-07-29T00:58:43;5.95;;;1.60;;
71792;SDS011;59639;51.170;6.456;2022-07-29T01:01:11;3.90;;;1.30;;
71792;SDS011;59639;51.170;6.456;2022-07-29T01:03:36;8.93;;;2.05;;
71792;SDS011;59639;51.170;6.456;2022-07-29T01:06:02;4.07;;;1.67;;
71792;SDS011;59639;51.170;6.456;2022-07-29T01:08:27;12.63;;;1.50;;
71792;SDS011;59639;51.170;6.456;2022-07-29T01:10:52;7.78;;;1.70;;
71792;SDS011;59639;51.170;6.456;2022-07-29T01:13:19;6.80;;;1.60;;
71792;SDS011;59639;51.170;6.456;2022-07-29T01:15:47;8.45;;;2.00;;
71792;SDS011;59639;51.170;6.456;2022-07-29T01:18:28;9.30;;;2.25;;
71792;SDS011;59639;51.170;6.456;2022-07-29T01:23:44;7.97;;;1.80;;
71792;SDS011;59639;51.170;6.456;2022-07-29T01:26:49;6.80;;;1.88;;
71792;SDS011;59639;51.170;6.456;2022-07-29T01:29:24;8.95;;;1.98;;
71792;SDS011;59639;51.170;6.456;2022-07-29T01:31:58;6.20;;;1.55;;
71792;SDS011;59639;51.170;6.456;2022-07-29T01:34:43;7.35;;;2.63;;
71792;SDS011;59639;51.170;6.456;2022-07-29T01:37:28;6.85;;;2.05;;
71792;SDS011;59639;51.170;6.456;2022-07-29T01:40:09;11.13;;;1.95;;
71792;SDS011;59639;51.170;6.456;2022-07-29T01:42:45;4.32;;;1.48;;
71792;SDS011;59639;51.170;6.456;2022-07-29T01:45:17;10.43;;;2.38;;
71792;SDS011;59639;51.170;6.456;2022-07-29T01:47:49;4.05;;;1.90;;
71792;SDS011;59639;51.170;6.456;2022-07-29T01:50:26;3.15;;;1.80;;
71792;SDS011;59639;51.170;6.456;2022-07-29T01:52:58;4.70;;;2.10;;
71792;SDS011;59639;51.170;6.456;2022-07-29T01:55:31;8.30;;;1.98;;
71792;SDS011;59639;51.170;6.456;2022-07-29T01:58:00;5.70;;;1.92;;
71792;SDS011;59639;51.170;6.456;2022-07-29T02:00:27;9.50;;;2.17;;
71792;SDS011;59639;51.170;6.456;2022-07-29T02:02:56;3.97;;;1.85;;
71792;SDS011;59639;51.170;6.456;2022-07-29T02:05:24;8.95;;;2.17;;
71792;SDS011;59639;51.170;6.456;2022-07-29T02:07:53;12.13;;;1.80;;
71792;SDS011;59639;51.170;6.456;2022-07-29T02:10:23;4.82;;;1.48;;
71792;SDS011;59639;51.170;6.456;2022-07-29T02:12:51;10.35;;;2.10;;
71792;SDS011;59639;51.170;6.456;2022-07-29T02:15:19;7.15;;;1.95;;
71792;SDS011;59639;51.170;6.456;2022-07-29T02:17:55;8.57;;;1.95;;
71792;SDS011;59639;51.170;6.456;2022-07-29T02:20:25;16.75;;;2.50;;
71792;SDS011;59639;51.170;6.456;2022-07-29T02:22:51;7.53;;;2.00;;
71792;SDS011;59639;51.170;6.456;2022-07-29T02:25:18;4.45;;;1.85;;
71792;SDS011;59639;51.170;6.456;2022-07-29T02:27:46;3.35;;;1.75;;
71792;SDS011;59639;51.170;6.456;2022-07-29T02:30:15;3.10;;;1.85;;
71792;SDS011;59639;51.170;6.456;2022-07-29T02:32:41;9.55;;;1.70;;
71792;SDS011;59639;51.170;6.456;2022-07-29T02:35:08;10.68;;;1.90;;
71792;SDS011;59639;51.170;6.456;2022-07-29T02:37:36;4.45;;;1.65;;
71792;SDS011;59639;51.170;6.456;2022-07-29T02:40:02;13.13;;;2.47;;
71792;SDS011;59639;51.170;6.456;2022-07-29T02:42:29;3.20;;;1.40;;
71792;SDS011;59639;51.170;6.456;2022-07-29T02:44:57;14.43;;;1.77;;
71792;SDS011;59639;51.170;6.456;2022-07-29T02:47:35;8.25;;;1.92;;
71792;SDS011;59639;51.170;6.456;2022-07-29T02:52:39;5.03;;;1.60;;
71792;SDS011;59639;51.170;6.456;2022-07-29T02:55:16;18.03;;;2.03;;
71792;SDS011;59639;51.170;6.456;2022-07-29T02:57:49;17.08;;;2.63;;
71792;SDS011;59639;51.170;6.456;2022-07-29T03:00:19;12.90;;;2.22;;
71792;SDS011;59639;51.170;6.456;2022-07-29T03:02:47;14.75;;;2.03;;
71792;SDS011;59639;51.170;6.456;2022-07-29T03:05:18;13.13;;;1.87;;
71792;SDS011;59639;51.170;6.456;2022-07-29T03:07:45;16.83;;;2.38;;
71792;SDS011;59639;51.170;6.456;2022-07-29T03:10:13;17.30;;;2.83;;
71792;SDS011;59639;51.170;6.456;2022-07-29T03:12:39;8.07;;;2.42;;
71792;SDS011;59639;51.170;6.456;2022-07-29T03:15:05;5.68;;;1.85;;
71792;SDS011;59639;51.170;6.456;2022-07-29T03:17:31;9.80;;;1.80;;
71792;SDS011;59639;51.170;6.456;2022-07-29T03:19:57;10.43;;;2.13;;
71792;SDS011;59639;51.170;6.456;2022-07-29T03:22:24;9.18;;;2.30;;
71792;SDS011;59639;51.170;6.456;2022-07-29T03:24:50;4.70;;;2.10;;
71792;SDS011;59639;51.170;6.456;2022-07-29T03:27:15;12.50;;;2.58;;
71792;SDS011;59639;51.170;6.456;2022-07-29T03:29:41;5.28;;;2.05;;
71792;SDS011;59639;51.170;6.456;2022-07-29T03:32:06;7.25;;;3.13;;
71792;SDS011;59639;51.170;6.456;2022-07-29T03:34:32;6.35;;;2.35;;
71792;SDS011;59639;51.170;6.456;2022-07-29T03:36:57;9.50;;;2.35;;
71792;SDS011;59639;51.170;6.456;2022-07-29T03:39:24;11.32;;;3.35;;
71792;SDS011;59639;51.170;6.456;2022-07-29T03:41:53;13.05;;;2.75;;
71792;SDS011;59639;51.170;6.456;2022-07-29T03:44:21;6.45;;;2.50;;
71792;SDS011;59639;51.170;6.456;2022-07-29T03:46:49;6.45;;;2.15;;
71792;SDS011;59639;51.170;6.456;2022-07-29T03:49:16;10.65;;;2.63;;
71792;SDS011;59639;51.170;6.456;2022-07-29T03:51:44;5.68;;;3.00;;
71792;SDS011;59639;51.170;6.456;2022-07-29T03:54:10;7.93;;;2.40;;
71792;SDS011;59639;51.170;6.456;2022-07-29T03:56:38;15.48;;;2.90;;
71792;SDS011;59639;51.170;6.456;2022-07-29T03:59:05;9.65;;;3.00;;
71792;SDS011;59639;51.170;6.456;2022-07-29T04:01:32;11.05;;;3.38;;
71792;SDS011;59639;51.170;6.456;2022-07-29T04:03:59;7.88;;;3.67;;
71792;SDS011;59639;51.170;6.456;2022-07-29T04:06:26;12.10;;;3.10;;
71792;SDS011;59639;51.170;6.456;2022-07-29T04:08:51;8.82;;;2.72;;
71792;SDS011;59639;51.170;6.456;2022-07-29T04:11:17;10.73;;;3.45;;
71792;SDS011;59639;51.170;6.456;2022-07-29T04:13:42;10.13;;;2.58;;
71792;SDS011;59639;51.170;6.456;2022-07-29T04:16:08;5.70;;;2.80;;
71792;SDS011;59639;51.170;6.456;2022-07-29T04:18:33;7.40;;;2.85;;
71792;SDS011;59639;51.170;6.456;2022-07-29T04:20:59;10.32;;;3.53;;
71792;SDS011;59639;51.170;6.456;2022-07-29T04:23:26;7.15;;;2.80;;
71792;SDS011;59639;51.170;6.456;2022-07-29T04:25:52;9.68;;;3.63;;
71792;SDS011;59639;51.170;6.456;2022-07-29T04:28:17;7.80;;;3.30;;
71792;SDS011;59639;51.170;6.456;2022-07-29T04:30:43;22.05;;;2.97;;
71792;SDS011;59639;51.170;6.456;2022-07-29T04:33:08;11.27;;;4.07;;
71792;SDS011;59639;51.170;6.456;2022-07-29T04:35:34;5.22;;;2.97;;
71792;SDS011;59639;51.170;6.456;2022-07-29T04:38:01;6.88;;;3.20;;
71792;SDS011;59639;51.170;6.456;2022-07-29T04:40:27;5.00;;;2.88;;
71792;SDS011;59639;51.170;6.456;2022-07-29T04:42:53;16.70;;;3.13;;
71792;SDS011;59639;51.170;6.456;2022-07-29T04:45:18;13.15;;;3.63;;
71792;SDS011;59639;51.170;6.456;2022-07-29T04:47:44;6.80;;;3.17;;
71792;SDS011;59639;51.170;6.456;2022-07-29T04:50:09;8.27;;;3.25;;
71792;SDS011;59639;51.170;6.456;2022-07-29T04:52:35;6.25;;;2.90;;
71792;SDS011;59639;51.170;6.456;2022-07-29T04:55:00;5.85;;;3.03;;
71792;SDS011;59639;51.170;6.456;2022-07-29T04:57:27;4.93;;;2.80;;
71792;SDS011;59639;51.170;6.456;2022-07-29T04:59:52;7.32;;;3.42;;
71792;SDS011;59639;51.170;6.456;2022-07-29T05:02:17;9.32;;;3.47;;
71792;SDS011;59639;51.170;6.456;2022-07-29T05:04:43;12.27;;;3.78;;
71792;SDS011;59639;51.170;6.456;2022-07-29T05:07:08;14.25;;;3.05;;
71792;SDS011;59639;51.170;6.456;2022-07-29T05:09:34;11.15;;;3.35;;
71792;SDS011;59639;51.170;6.456;2022-07-29T05:11:59;5.90;;;2.92;;
71792;SDS011;59639;51.170;6.456;2022-07-29T05:14:24;11.65;;;3.10;;
71792;SDS011;59639;51.170;6.456;2022-07-29T05:16:50;6.45;;;3.15;;
71792;SDS011;59639;51.170;6.456;2022-07-29T05:19:16;8.02;;;3.35;;
71792;SDS011;59639;51.170;6.456;2022-07-29T05:21:42;9.38;;;3.00;;
71792;SDS011;59639;51.170;6.456;2022-07-29T05:24:09;7.32;;;3.70;;
71792;SDS011;59639;51.170;6.456;2022-07-29T05:26:35;11.18;;;3.58;;
71792;SDS011;59639;51.170;6.456;2022-07-29T05:29:00;7.18;;;3.13;;
71792;SDS011;59639;51.170;6.456;2022-07-29T05:31:25;10.18;;;4.00;;
71792;SDS011;59639;51.170;6.456;2022-07-29T05:33:51;10.13;;;3.60;;
71792;SDS011;59639;51.170;6.456;2022-07-29T05:36:16;13.38;;;5.35;;
71792;SDS011;59639;51.170;6.456;2022-07-29T05:38:42;12.65;;;3.33;;
71792;SDS011;59639;51.170;6.456;2022-07-29T05:41:07;9.32;;;3.00;;
71792;SDS011;59639;51.170;6.456;2022-07-29T05:43:33;11.25;;;4.22;;
71792;SDS011;59639;51.170;6.456;2022-07-29T05:45:58;10.15;;;3.35;;
71792;SDS011;59639;51.170;6.456;2022-07-29T05:48:23;17.27;;;3.42;;
71792;SDS011;59639;51.170;6.456;2022-07-29T05:50:49;10.48;;;5.75;;
71792;SDS011;59639;51.170;6.456;2022-07-29T05:53:14;9.65;;;4.15;;
71792;SDS011;59639;51.170;6.456;2022-07-29T05:55:40;12.65;;;3.85;;
71792;SDS011;59639;51.170;6.456;2022-07-29T05:58:06;9.30;;;3.13;;
71792;SDS011;59639;51.170;6.456;2022-07-29T06:00:31;11.85;;;5.38;;
71792;SDS011;59639;51.170;6.456;2022-07-29T06:02:57;12.95;;;4.32;;
71792;SDS011;59639;51.170;6.456;2022-07-29T06:05:22;11.18;;;4.03;;
71792;SDS011;59639;51.170;6.456;2022-07-29T06:07:48;10.25;;;4.63;;
71792;SDS011;59639;51.170;6.456;2022-07-29T06:10:13;11.15;;;4.72;;
71792;SDS011;59639;51.170;6.456;2022-07-29T06:12:39;11.05;;;3.92;;
71792;SDS011;59639;51.170;6.456;2022-07-29T06:15:04;10.93;;;4.43;;
71792;SDS011;59639;51.170;6.456;2022-07-29T06:17:30;8.48;;;4.82;;
71792;SDS011;59639;51.170;6.456;2022-07-29T06:19:56;11.75;;;5.25;;
71792;SDS011;59639;51.170;6.456;2022-07-29T06:22:21;10.15;;;3.92;;
71792;SDS011;59639;51.170;6.456;2022-07-29T06:24:46;8.80;;;3.30;;
71792;SDS011;59639;51.170;6.456;2022-07-29T06:27:12;8.35;;;3.72;;
71792;SDS011;59639;51.170;6.456;2022-07-29T06:29:37;8.10;;;4.30;;
71792;SDS011;59639;51.170;6.456;2022-07-29T06:32:03;7.45;;;3.50;;
71792;SDS011;59639;51.170;6.456;2022-07-29T06:34:29;10.77;;;4.30;;
71792;SDS011;59639;51.170;6.456;2022-07-29T06:36:54;14.68;;;4.18;;
71792;SDS011;59639;51.170;6.456;2022-07-29T06:39:19;10.93;;;4.22;;
71792;SDS011;59639;51.170;6.456;2022-07-29T06:41:48;11.38;;;4.40;;
71792;SDS011;59639;51.170;6.456;2022-07-29T06:44:15;13.70;;;3.60;;
71792;SDS011;59639;51.170;6.456;2022-07-29T06:46:42;9.80;;;3.97;;
71792;SDS011;59639;51.170;6.456;2022-07-29T06:49:08;8.43;;;3.90;;
71792;SDS011;59639;51.170;6.456;2022-07-29T06:51:34;10.82;;;4.47;;
71792;SDS011;59639;51.170;6.456;2022-07-29T06:53:59;14.05;;;5.43;;
71792;SDS011;59639;51.170;6.456;2022-07-29T06:56:25;18.23;;;5.03;;
71792;SDS011;59639;51.170;6.456;2022-07-29T06:58:51;15.07;;;4.70;;
71792;SDS011;59639;51.170;6.456;2022-07-29T07:01:16;15.18;;;5.38;;
71792;SDS011;59639;51.170;6.456;2022-07-29T07:03:42;10.90;;;4.38;;
71792;SDS011;59639;51.170;6.456;2022-07-29T07:06:07;14.27;;;4.80;;
71792;SDS011;59639;51.170;6.456;2022-07-29T07:08:33;14.02;;;4.40;;
71792;SDS011;59639;51.170;6.456;2022-07-29T07:10:58;9.82;;;4.65;;
71792;SDS011;59639;51.170;6.456;2022-07-29T07:13:23;12.13;;;4.68;;
71792;SDS011;59639;51.170;6.456;2022-07-29T07:15:49;8.25;;;4.40;;
71792;SDS011;59639;51.170;6.456;2022-07-29T07:18:15;8.60;;;3.78;;
71792;SDS011;59639;51.170;6.456;2022-07-29T07:20:41;10.13;;;4.07;;
71792;SDS011;59639;51.170;6.456;2022-07-29T07:23:07;14.60;;;4.30;;
71792;SDS011;59639;51.170;6.456;2022-07-29T07:25:33;9.60;;;4.68;;
71792;SDS011;59639;51.170;6.456;2022-07-29T07:27:58;12.88;;;4.70;;
71792;SDS011;59639;51.170;6.456;2022-07-29T07:30:24;12.15;;;4.35;;
71792;SDS011;59639;51.170;6.456;2022-07-29T07:32:49;13.50;;;4.30;;
71792;SDS011;59639;51.170;6.456;2022-07-29T07:35:15;9.82;;;4.80;;
71792;SDS011;59639;51.170;6.456;2022-07-29T07:37:40;10.95;;;4.63;;
71792;SDS011;59639;51.170;6.456;2022-07-29T07:40:06;11.00;;;4.45;;
71792;SDS011;59639;51.170;6.456;2022-07-29T07:42:33;18.42;;;4.20;;
71792;SDS011;59639;51.170;6.456;2022-07-29T07:44:59;9.25;;;4.18;;
71792;SDS011;59639;51.170;6.456;2022-07-29T07:47:24;6.30;;;4.20;;
71792;SDS011;59639;51.170;6.456;2022-07-29T07:49:50;11.55;;;4.18;;
71792;SDS011;59639;51.170;6.456;2022-07-29T07:52:16;7.15;;;3.70;;
71792;SDS011;59639;51.170;6.456;2022-07-29T07:54:42;13.05;;;3.50;;
71792;SDS011;59639;51.170;6.456;2022-07-29T07:57:08;7.13;;;3.45;;
71792;SDS011;59639;51.170;6.456;2022-07-29T07:59:34;11.98;;;4.93;;
71792;SDS011;59639;51.170;6.456;2022-07-29T08:02:00;11.43;;;3.83;;
71792;SDS011;59639;51.170;6.456;2022-07-29T08:04:26;5.32;;;3.70;;
71792;SDS011;59639;51.170;6.456;2022-07-29T08:06:51;9.05;;;4.35;;
71792;SDS011;59639;51.170;6.456;2022-07-29T08:09:19;6.65;;;3.67;;
71792;SDS011;59639;51.170;6.456;2022-07-29T08:11:47;14.95;;;4.55;;
71792;SDS011;59639;51.170;6.456;2022-07-29T08:14:13;8.13;;;4.50;;
71792;SDS011;59639;51.170;6.456;2022-07-29T08:16:39;14.15;;;5.75;;
71792;SDS011;59639;51.170;6.456;2022-07-29T08:19:05;9.75;;;4.90;;
71792;SDS011;59639;51.170;6.456;2022-07-29T08:21:30;8.73;;;4.00;;
71792;SDS011;59639;51.170;6.456;2022-07-29T08:23:56;11.82;;;4.32;;
71792;SDS011;59639;51.170;6.456;2022-07-29T08:26:42;10.15;;;5.10;;
71792;SDS011;59639;51.170;6.456;2022-07-29T08:29:08;11.50;;;4.20;;
71792;SDS011;59639;51.170;6.456;2022-07-29T08:31:34;11.65;;;4.50;;
71792;SDS011;59639;51.170;6.456;2022-07-29T08:34:00;12.63;;;4.18;;
71792;SDS011;59639;51.170;6.456;2022-07-29T08:36:26;10.18;;;4.97;;
71792;SDS011;59639;51.170;6.456;2022-07-29T08:38:51;12.18;;;4.55;;
71792;SDS011;59639;51.170;6.456;2022-07-29T08:41:20;7.63;;;4.68;;
71792;SDS011;59639;51.170;6.456;2022-07-29T08:43:47;11.23;;;3.90;;
71792;SDS011;59639;51.170;6.456;2022-07-29T08:46:13;12.35;;;4.97;;
71792;SDS011;59639;51.170;6.456;2022-07-29T08:48:39;8.10;;;4.40;;
71792;SDS011;59639;51.170;6.456;2022-07-29T08:51:06;16.15;;;4.90;;
71792;SDS011;59639;51.170;6.456;2022-07-29T08:53:32;10.85;;;3.95;;
71792;SDS011;59639;51.170;6.456;2022-07-29T08:55:59;11.40;;;4.93;;
71792;SDS011;59639;51.170;6.456;2022-07-29T08:58:26;24.65;;;5.53;;
71792;SDS011;59639;51.170;6.456;2022-07-29T09:00:56;14.82;;;5.65;;
71792;SDS011;59639;51.170;6.456;2022-07-29T09:03:25;14.07;;;5.25;;
71792;SDS011;59639;51.170;6.456;2022-07-29T09:05:55;19.98;;;6.15;;
71792;SDS011;59639;51.170;6.456;2022-07-29T09:08:20;13.35;;;5.55;;
71792;SDS011;59639;51.170;6.456;2022-07-29T09:10:46;18.67;;;5.18;;
71792;SDS011;59639;51.170;6.456;2022-07-29T09:13:12;16.27;;;5.22;;
71792;SDS011;59639;51.170;6.456;2022-07-29T09:15:37;10.82;;;4.93;;
71792;SDS011;59639;51.170;6.456;2022-07-29T09:18:03;16.08;;;5.30;;
71792;SDS011;59639;51.170;6.456;2022-07-29T09:20:28;15.02;;;5.72;;
71792;SDS011;59639;51.170;6.456;2022-07-29T09:23:12;11.52;;;5.22;;
71792;SDS011;59639;51.170;6.456;2022-07-29T09:25:38;16.15;;;6.07;;
71792;SDS011;59639;51.170;6.456;2022-07-29T09:28:06;15.57;;;4.97;;
71792;SDS011;59639;51.170;6.456;2022-07-29T09:30:32;11.93;;;4.90;;
71792;SDS011;59639;51.170;6.456;2022-07-29T09:32:58;11.68;;;4.93;;
71792;SDS011;59639;51.170;6.456;2022-07-29T09:35:28;9.38;;;4.47;;
71792;SDS011;59639;51.170;6.456;2022-07-29T09:37:55;10.35;;;4.35;;
71792;SDS011;59639;51.170;6.456;2022-07-29T09:40:26;10.38;;;4.30;;
71792;SDS011;59639;51.170;6.456;2022-07-29T09:42:53;10.25;;;4.38;;
71792;SDS011;59639;51.170;6.456;2022-07-29T09:45:26;9.80;;;4.57;;
71792;SDS011;59639;51.170;6.456;2022-07-29T09:47:53;11.50;;;3.85;;
71792;SDS011;59639;51.170;6.456;2022-07-29T09:50:19;7.78;;;4.32;;
71792;SDS011;59639;51.170;6.456;2022-07-29T09:52:49;12.10;;;5.00;;
71792;SDS011;59639;51.170;6.456;2022-07-29T09:55:16;15.48;;;4.18;;
71792;SDS011;59639;51.170;6.456;2022-07-29T09:57:43;11.30;;;4.20;;
71792;SDS011;59639;51.170;6.456;2022-07-29T10:00:10;7.35;;;3.28;;
71792;SDS011;59639;51.170;6.456;2022-07-29T10:02:41;12.52;;;4.32;;
71792;SDS011;59639;51.170;6.456;2022-07-29T10:12:56;9.43;;;4.47;;
71792;SDS011;59639;51.170;6.456;2022-07-29T10:15:24;10.52;;;4.63;;
71792;SDS011;59639;51.170;6.456;2022-07-29T10:17:52;10.13;;;3.50;;
71792;SDS011;59639;51.170;6.456;2022-07-29T10:20:18;8.27;;;3.47;;
71792;SDS011;59639;51.170;6.456;2022-07-29T10:22:46;9.20;;;3.50;;
71792;SDS011;59639;51.170;6.456;2022-07-29T10:25:12;10.50;;;4.35;;
71792;SDS011;59639;51.170;6.456;2022-07-29T10:27:39;8.15;;;3.30;;
71792;SDS011;59639;51.170;6.456;2022-07-29T10:30:05;12.23;;;4.22;;
71792;SDS011;59639;51.170;6.456;2022-07-29T10:35:18;19.87;;;5.00;;
71792;SDS011;59639;51.170;6.456;2022-07-29T10:41:18;11.95;;;5.25;;
71792;SDS011;59639;51.170;6.456;2022-07-29T10:44:15;19.63;;;5.30;;
71792;SDS011;59639;51.170;6.456;2022-07-29T10:46:43;11.57;;;4.65;;
71792;SDS011;59639;51.170;6.456;2022-07-29T11:05:00;8.27;;;4.20;;
71792;SDS011;59639;51.170;6.456;2022-07-29T11:07:31;8.45;;;3.92;;
71792;SDS011;59639;51.170;6.456;2022-07-29T11:15:02;6.78;;;3.33;;
71792;SDS011;59639;51.170;6.456;2022-07-29T11:17:28;8.38;;;3.67;;
71792;SDS011;59639;51.170;6.456;2022-07-29T11:22:57;7.60;;;3.97;;
71792;SDS011;59639;51.170;6.456;2022-07-29T11:25:23;10.68;;;4.40;;
71792;SDS011;59639;51.170;6.456;2022-07-29T11:27:48;11.93;;;3.92;;
71792;SDS011;59639;51.170;6.456;2022-07-29T11:30:14;13.80;;;4.53;;
71792;SDS011;59639;51.170;6.456;2022-07-29T11:32:41;9.15;;;4.28;;
71792;SDS011;59639;51.170;6.456;2022-07-29T11:35:13;10.43;;;4.22;;
71792;SDS011;59639;51.170;6.456;2022-07-29T11:37:38;12.15;;;4.18;;
71792;SDS011;59639;51.170;6.456;2022-07-29T11:45:08;11.57;;;4.40;;
71792;SDS011;59639;51.170;6.456;2022-07-29T11:47:41;12.73;;;4.45;;
71792;SDS011;59639;51.170;6.456;2022-07-29T11:50:14;9.48;;;4.05;;
71792;SDS011;59639;51.170;6.456;2022-07-29T11:52:43;8.80;;;4.72;;
71792;SDS011;59639;51.170;6.456;2022-07-29T11:55:17;13.07;;;5.23;;
71792;SDS011;59639;51.170;6.456;2022-07-29T11:57:45;12.68;;;5.43;;
71792;SDS011;59639;51.170;6.456;2022-07-29T12:00:23;20.08;;;5.78;;
71792;SDS011;59639;51.170;6.456;2022-07-29T12:02:54;9.40;;;4.70;;
71792;SDS011;59639;51.170;6.456;2022-07-29T12:05:20;12.73;;;4.57;;
71792;SDS011;59639;51.170;6.456;2022-07-29T12:07:55;11.48;;;4.40;;
71792;SDS011;59639;51.170;6.456;2022-07-29T12:10:20;15.07;;;4.80;;
71792;SDS011;59639;51.170;6.456;2022-07-29T12:12:50;10.18;;;4.80;;
71792;SDS011;59639;51.170;6.456;2022-07-29T12:15:17;6.97;;;3.90;;
71792;SDS011;59639;51.170;6.456;2022-07-29T12:17:45;11.50;;;3.88;;
71792;SDS011;59639;51.170;6.456;2022-07-29T12:20:12;9.30;;;4.57;;
71792;SDS011;59639;51.170;6.456;2022-07-29T12:22:42;13.63;;;4.13;;
71792;SDS011;59639;51.170;6.456;2022-07-29T12:25:10;13.07;;;4.05;;
71792;SDS011;59639;51.170;6.456;2022-07-29T12:27:39;16.52;;;4.82;;
71792;SDS011;59639;51.170;6.456;2022-07-29T12:30:06;11.05;;;4.15;;
71792;SDS011;59639;51.170;6.456;2022-07-29T12:32:33;7.90;;;3.65;;
71792;SDS011;59639;51.170;6.456;2022-07-29T12:35:02;10.52;;;4.07;;
71792;SDS011;59639;51.170;6.456;2022-07-29T12:37:36;9.20;;;3.60;;
71792;SDS011;59639;51.170;6.456;2022-07-29T12:40:03;8.73;;;3.28;;
71792;SDS011;59639;51.170;6.456;2022-07-29T12:42:30;5.82;;;3.67;;
71792;SDS011;59639;51.170;6.456;2022-07-29T12:44:56;18.95;;;4.38;;
71792;SDS011;59639;51.170;6.456;2022-07-29T12:47:22;11.23;;;3.30;;
71792;SDS011;59639;51.170;6.456;2022-07-29T12:49:48;13.43;;;3.90;;
71792;SDS011;59639;51.170;6.456;2022-07-29T12:55:11;8.32;;;3.60;;
71792;SDS011;59639;51.170;6.456;2022-07-29T12:57:46;8.35;;;3.17;;
71792;SDS011;59639;51.170;6.456;2022-07-29T13:00:12;11.68;;;3.05;;
71792;SDS011;59639;51.170;6.456;2022-07-29T13:02:39;9.77;;;2.95;;
71792;SDS011;59639;51.170;6.456;2022-07-29T13:05:06;7.53;;;2.40;;
71792;SDS011;59639;51.170;6.456;2022-07-29T13:07:33;6.30;;;3.00;;
71792;SDS011;59639;51.170;6.456;2022-07-29T13:12:39;8.95;;;2.38;;
71792;SDS011;59639;51.170;6.456;2022-07-29T13:15:27;5.72;;;2.80;;
71792;SDS011;59639;51.170;6.456;2022-07-29T13:17:53;6.53;;;2.58;;
71792;SDS011;59639;51.170;6.456;2022-07-29T13:20:18;4.05;;;2.42;;
71792;SDS011;59639;51.170;6.456;2022-07-29T13:22:47;9.93;;;3.38;;
71792;SDS011;59639;51.170;6.456;2022-07-29T13:25:13;4.75;;;2.90;;
71792;SDS011;59639;51.170;6.456;2022-07-29T13:27:38;8.43;;;3.72;;
71792;SDS011;59639;51.170;6.456;2022-07-29T13:30:07;5.75;;;3.15;;
71792;SDS011;59639;51.170;6.456;2022-07-29T13:32:34;8.80;;;4.03;;
71792;SDS011;59639;51.170;6.456;2022-07-29T13:35:02;8.70;;;3.00;;
71792;SDS011;59639;51.170;6.456;2022-07-29T13:37:30;6.63;;;3.05;;
71792;SDS011;59639;51.170;6.456;2022-07-29T13:39:57;7.88;;;3.20;;
71792;SDS011;59639;51.170;6.456;2022-07-29T13:42:24;13.05;;;2.70;;
71792;SDS011;59639;51.170;6.456;2022-07-29T13:44:49;8.73;;;3.47;;
71792;SDS011;59639;51.170;6.456;2022-07-29T13:47:16;4.65;;;2.22;;
71792;SDS011;59639;51.170;6.456;2022-07-29T13:49:45;5.28;;;2.47;;
71792;SDS011;59639;51.170;6.456;2022-07-29T13:52:10;4.80;;;2.13;;
71792;SDS011;59639;51.170;6.456;2022-07-29T13:54:36;7.90;;;2.80;;
71792;SDS011;59639;51.170;6.456;2022-07-29T13:57:03;7.50;;;2.13;;
71792;SDS011;59639;51.170;6.456;2022-07-29T13:59:29;5.72;;;2.60;;
71792;SDS011;59639;51.170;6.456;2022-07-29T14:01:54;5.55;;;2.50;;
71792;SDS011;59639;51.170;6.456;2022-07-29T14:04:20;9.13;;;2.70;;
71792;SDS011;59639;51.170;6.456;2022-07-29T14:06:46;5.65;;;2.20;;
71792;SDS011;59639;51.170;6.456;2022-07-29T14:09:11;8.95;;;2.40;;
71792;SDS011;59639;51.170;6.456;2022-07-29T14:11:37;11.88;;;2.70;;
71792;SDS011;59639;51.170;6.456;2022-07-29T14:14:03;7.45;;;2.20;;
71792;SDS011;59639;51.170;6.456;2022-07-29T14:16:35;7.15;;;2.53;;
71792;SDS011;59639;51.170;6.456;2022-07-29T14:19:01;3.95;;;1.98;;
71792;SDS011;59639;51.170;6.456;2022-07-29T14:21:27;5.13;;;2.65;;
71792;SDS011;59639;51.170;6.456;2022-07-29T14:23:52;10.77;;;2.85;;
71792;SDS011;59639;51.170;6.456;2022-07-29T14:26:19;8.00;;;2.72;;
71792;SDS011;59639;51.170;6.456;2022-07-29T14:28:45;8.38;;;3.13;;
71792;SDS011;59639;51.170;6.456;2022-07-29T14:31:10;5.63;;;2.42;;
71792;SDS011;59639;51.170;6.456;2022-07-29T14:33:36;9.30;;;3.00;;
71792;SDS011;59639;51.170;6.456;2022-07-29T14:36:01;5.07;;;2.53;;
71792;SDS011;59639;51.170;6.456;2022-07-29T14:38:26;5.82;;;2.55;;
71792;SDS011;59639;51.170;6.456;2022-07-29T14:40:52;6.03;;;2.75;;
71792;SDS011;59639;51.170;6.456;2022-07-29T14:43:17;5.88;;;3.00;;
71792;SDS011;59639;51.170;6.456;2022-07-29T14:45:43;7.75;;;2.90;;
71792;SDS011;59639;51.170;6.456;2022-07-29T14:48:08;6.82;;;2.55;;
71792;SDS011;59639;51.170;6.456;2022-07-29T14:50:34;6.63;;;2.33;;
71792;SDS011;59639;51.170;6.456;2022-07-29T14:53:00;8.57;;;2.80;;
71792;SDS011;59639;51.170;6.456;2022-07-29T14:55:25;6.50;;;2.80;;
71792;SDS011;59639;51.170;6.456;2022-07-29T14:57:51;7.97;;;2.90;;
71792;SDS011;59639;51.170;6.456;2022-07-29T15:00:17;7.43;;;2.80;;
71792;SDS011;59639;51.170;6.456;2022-07-29T15:02:43;14.18;;;3.45;;
71792;SDS011;59639;51.170;6.456;2022-07-29T15:05:08;7.30;;;3.08;;
71792;SDS011;59639;51.170;6.456;2022-07-29T15:07:33;7.80;;;2.80;;
71792;SDS011;59639;51.170;6.456;2022-07-29T15:09:59;6.35;;;3.38;;
71792;SDS011;59639;51.170;6.456;2022-07-29T15:12:24;7.15;;;2.83;;
71792;SDS011;59639;51.170;6.456;2022-07-29T15:14:49;6.32;;;2.90;;
71792;SDS011;59639;51.170;6.456;2022-07-29T15:17:15;8.65;;;4.00;;
71792;SDS011;59639;51.170;6.456;2022-07-29T15:19:40;8.23;;;3.80;;
71792;SDS011;59639;51.170;6.456;2022-07-29T15:22:06;8.77;;;4.05;;
71792;SDS011;59639;51.170;6.456;2022-07-29T15:24:31;6.22;;;3.53;;
71792;SDS011;59639;51.170;6.456;2022-07-29T15:26:57;7.25;;;3.55;;
71792;SDS011;59639;51.170;6.456;2022-07-29T15:29:22;7.40;;;3.97;;
71792;SDS011;59639;51.170;6.456;2022-07-29T15:31:48;8.93;;;3.17;;
71792;SDS011;59639;51.170;6.456;2022-07-29T15:34:13;10.63;;;4.28;;